sensor_id;sensor_type;location;lat;lon;timestamp;P1;durP1;ratioP1;P2;durP2;ratioP2
51854;SDS011;37895;53.240;6.572;2023-04-03T00:01:24;4.75;;;3.30;;
51854;SDS011;37895;53.240;6.572;2023-04-03T00:03:50;5.65;;;2.80;;
51854;SDS011;37895;53.240;6.572;2023-04-03T00:06:16;4.05;;;2.90;;
51854;SDS011;37895;53.240;6.572;2023-04-03T00:08:42;3.60;;;2.80;;
51854;SDS011;37895;53.240;6.572;2023-04-03T00:11:08;3.60;;;2.65;;
51854;SDS011;37895;53.240;6.572;2023-04-03T00:13:35;3.38;;;2.95;;
51854;SDS011;37895;53.240;6.572;2023-04-03T00:16:02;3.97;;;3.17;;
51854;SDS011;37895;53.240;6.572;2023-04-03T00:18:28;3.85;;;2.65;;
51854;SDS011;37895;53.240;6.572;2023-04-03T00:20:54;3.17;;;2.55;;
51854;SDS011;37895;53.240;6.572;2023-04-03T00:23:20;3.90;;;3.05;;
51854;SDS011;37895;53.240;6.572;2023-04-03T00:25:45;3.13;;;2.78;;
51854;SDS011;37895;53.240;6.572;2023-04-03T00:28:11;4.57;;;3.10;;
51854;SDS011;37895;53.240;6.572;2023-04-03T00:30:37;6.03;;;3.30;;
51854;SDS011;37895;53.240;6.572;2023-04-03T00:33:02;3.35;;;2.70;;
51854;SDS011;37895;53.240;6.572;2023-04-03T00:35:28;3.50;;;2.90;;
51854;SDS011;37895;53.240;6.572;2023-04-03T00:37:55;4.30;;;2.72;;
51854;SDS011;37895;53.240;6.572;2023-04-03T00:42:48;6.80;;;3.53;;
51854;SDS011;37895;53.240;6.572;2023-04-03T00:45:23;4.70;;;2.88;;
51854;SDS011;37895;53.240;6.572;2023-04-03T00:47:54;6.85;;;3.25;;
51854;SDS011;37895;53.240;6.572;2023-04-03T00:50:22;4.13;;;2.92;;
51854;SDS011;37895;53.240;6.572;2023-04-03T00:52:48;5.32;;;3.05;;
51854;SDS011;37895;53.240;6.572;2023-04-03T00:55:14;4.80;;;3.08;;
51854;SDS011;37895;53.240;6.572;2023-04-03T00:57:41;3.90;;;2.78;;
51854;SDS011;37895;53.240;6.572;2023-04-03T01:00:09;4.53;;;2.90;;
51854;SDS011;37895;53.240;6.572;2023-04-03T01:02:37;4.93;;;2.80;;
51854;SDS011;37895;53.240;6.572;2023-04-03T01:05:05;5.32;;;3.53;;
51854;SDS011;37895;53.240;6.572;2023-04-03T01:07:32;4.68;;;3.08;;
51854;SDS011;37895;53.240;6.572;2023-04-03T01:10:05;5.90;;;3.13;;
51854;SDS011;37895;53.240;6.572;2023-04-03T01:12:37;5.38;;;3.28;;
51854;SDS011;37895;53.240;6.572;2023-04-03T01:15:09;4.53;;;3.25;;
51854;SDS011;37895;53.240;6.572;2023-04-03T01:17:41;4.00;;;3.15;;
51854;SDS011;37895;53.240;6.572;2023-04-03T01:28:08;5.65;;;3.20;;
51854;SDS011;37895;53.240;6.572;2023-04-03T01:30:47;5.18;;;2.90;;
51854;SDS011;37895;53.240;6.572;2023-04-03T01:33:29;7.25;;;4.50;;
51854;SDS011;37895;53.240;6.572;2023-04-03T01:35:55;6.70;;;3.28;;
51854;SDS011;37895;53.240;6.572;2023-04-03T01:38:21;5.45;;;2.97;;
51854;SDS011;37895;53.240;6.572;2023-04-03T01:40:47;5.82;;;3.47;;
51854;SDS011;37895;53.240;6.572;2023-04-03T01:43:12;7.72;;;3.38;;
51854;SDS011;37895;53.240;6.572;2023-04-03T01:45:38;6.63;;;3.60;;
51854;SDS011;37895;53.240;6.572;2023-04-03T01:48:04;5.82;;;3.10;;
51854;SDS011;37895;53.240;6.572;2023-04-03T01:50:30;5.07;;;3.35;;
51854;SDS011;37895;53.240;6.572;2023-04-03T01:52:55;6.53;;;3.38;;
51854;SDS011;37895;53.240;6.572;2023-04-03T01:55:21;5.35;;;3.47;;
51854;SDS011;37895;53.240;6.572;2023-04-03T01:57:47;6.32;;;3.55;;
51854;SDS011;37895;53.240;6.572;2023-04-03T02:00:13;6.95;;;3.67;;
51854;SDS011;37895;53.240;6.572;2023-04-03T02:05:05;5.43;;;3.47;;
51854;SDS011;37895;53.240;6.572;2023-04-03T02:09:56;5.85;;;3.42;;
51854;SDS011;37895;53.240;6.572;2023-04-03T02:12:23;7.35;;;3.55;;
51854;SDS011;37895;53.240;6.572;2023-04-03T02:14:49;5.43;;;3.15;;
51854;SDS011;37895;53.240;6.572;2023-04-03T02:17:14;8.55;;;4.00;;
51854;SDS011;37895;53.240;6.572;2023-04-03T02:19:40;5.85;;;3.40;;
51854;SDS011;37895;53.240;6.572;2023-04-03T02:22:06;5.80;;;3.58;;
51854;SDS011;37895;53.240;6.572;2023-04-03T02:24:32;7.25;;;3.63;;
51854;SDS011;37895;53.240;6.572;2023-04-03T02:26:57;7.43;;;3.50;;
51854;SDS011;37895;53.240;6.572;2023-04-03T02:29:23;7.55;;;3.88;;
51854;SDS011;37895;53.240;6.572;2023-04-03T02:31:49;5.95;;;3.90;;
51854;SDS011;37895;53.240;6.572;2023-04-03T02:34:15;8.30;;;3.97;;
51854;SDS011;37895;53.240;6.572;2023-04-03T02:36:41;6.63;;;3.78;;
51854;SDS011;37895;53.240;6.572;2023-04-03T02:39:07;8.70;;;3.75;;
51854;SDS011;37895;53.240;6.572;2023-04-03T02:41:33;8.35;;;4.10;;
51854;SDS011;37895;53.240;6.572;2023-04-03T02:44:04;7.53;;;4.15;;
51854;SDS011;37895;53.240;6.572;2023-04-03T02:46:31;8.23;;;3.88;;
51854;SDS011;37895;53.240;6.572;2023-04-03T02:51:23;6.13;;;3.95;;
51854;SDS011;37895;53.240;6.572;2023-04-03T02:53:49;7.50;;;3.90;;
51854;SDS011;37895;53.240;6.572;2023-04-03T02:56:15;6.68;;;3.92;;
51854;SDS011;37895;53.240;6.572;2023-04-03T02:58:42;5.63;;;3.60;;
51854;SDS011;37895;53.240;6.572;2023-04-03T03:01:07;7.50;;;3.67;;
51854;SDS011;37895;53.240;6.572;2023-04-03T03:03:33;9.48;;;4.13;;
51854;SDS011;37895;53.240;6.572;2023-04-03T03:06:06;6.45;;;4.43;;
51854;SDS011;37895;53.240;6.572;2023-04-03T03:08:33;6.32;;;4.50;;
51854;SDS011;37895;53.240;6.572;2023-04-03T03:11:01;6.05;;;3.65;;
51854;SDS011;37895;53.240;6.572;2023-04-03T03:13:26;7.45;;;4.00;;
51854;SDS011;37895;53.240;6.572;2023-04-03T03:15:52;8.35;;;4.78;;
51854;SDS011;37895;53.240;6.572;2023-04-03T03:18:18;7.25;;;4.07;;
51854;SDS011;37895;53.240;6.572;2023-04-03T03:20:44;6.35;;;4.40;;
51854;SDS011;37895;53.240;6.572;2023-04-03T03:23:10;6.35;;;4.43;;
51854;SDS011;37895;53.240;6.572;2023-04-03T03:25:39;8.40;;;4.47;;
51854;SDS011;37895;53.240;6.572;2023-04-03T03:28:05;5.70;;;3.92;;
51854;SDS011;37895;53.240;6.572;2023-04-03T03:30:31;8.00;;;4.22;;
51854;SDS011;37895;53.240;6.572;2023-04-03T03:32:57;6.15;;;4.40;;
51854;SDS011;37895;53.240;6.572;2023-04-03T03:35:23;6.65;;;4.30;;
51854;SDS011;37895;53.240;6.572;2023-04-03T03:37:48;8.02;;;5.00;;
51854;SDS011;37895;53.240;6.572;2023-04-03T03:40:14;8.77;;;4.85;;
51854;SDS011;37895;53.240;6.572;2023-04-03T03:42:40;8.27;;;4.30;;
51854;SDS011;37895;53.240;6.572;2023-04-03T03:45:06;9.13;;;4.55;;
51854;SDS011;37895;53.240;6.572;2023-04-03T03:47:32;9.18;;;3.67;;
51854;SDS011;37895;53.240;6.572;2023-04-03T03:49:57;6.80;;;4.10;;
51854;SDS011;37895;53.240;6.572;2023-04-03T03:52:23;6.87;;;4.53;;
51854;SDS011;37895;53.240;6.572;2023-04-03T03:54:49;6.50;;;4.32;;
51854;SDS011;37895;53.240;6.572;2023-04-03T03:57:14;8.20;;;4.68;;
51854;SDS011;37895;53.240;6.572;2023-04-03T03:59:40;6.75;;;4.38;;
51854;SDS011;37895;53.240;6.572;2023-04-03T04:04:32;6.75;;;3.97;;
51854;SDS011;37895;53.240;6.572;2023-04-03T04:06:58;12.15;;;5.15;;
51854;SDS011;37895;53.240;6.572;2023-04-03T04:09:25;6.50;;;4.22;;
51854;SDS011;37895;53.240;6.572;2023-04-03T04:11:51;9.15;;;4.63;;
51854;SDS011;37895;53.240;6.572;2023-04-03T04:14:16;7.00;;;4.70;;
51854;SDS011;37895;53.240;6.572;2023-04-03T04:16:42;8.20;;;4.43;;
51854;SDS011;37895;53.240;6.572;2023-04-03T04:19:08;7.05;;;4.43;;
51854;SDS011;37895;53.240;6.572;2023-04-03T04:24:00;8.73;;;4.80;;
51854;SDS011;37895;53.240;6.572;2023-04-03T04:26:26;7.45;;;4.82;;
51854;SDS011;37895;53.240;6.572;2023-04-03T04:28:51;7.88;;;4.90;;
51854;SDS011;37895;53.240;6.572;2023-04-03T04:31:17;7.93;;;4.78;;
51854;SDS011;37895;53.240;6.572;2023-04-03T04:33:42;7.43;;;4.70;;
51854;SDS011;37895;53.240;6.572;2023-04-03T04:36:08;8.60;;;4.93;;
51854;SDS011;37895;53.240;6.572;2023-04-03T04:38:34;9.73;;;5.13;;
51854;SDS011;37895;53.240;6.572;2023-04-03T04:41:00;10.95;;;4.88;;
51854;SDS011;37895;53.240;6.572;2023-04-03T04:43:26;11.13;;;5.82;;
51854;SDS011;37895;53.240;6.572;2023-04-03T04:46:07;9.98;;;5.28;;
51854;SDS011;37895;53.240;6.572;2023-04-03T04:48:35;7.40;;;4.75;;
51854;SDS011;37895;53.240;6.572;2023-04-03T04:51:01;9.38;;;5.53;;
51854;SDS011;37895;53.240;6.572;2023-04-03T04:53:27;14.35;;;6.03;;
51854;SDS011;37895;53.240;6.572;2023-04-03T04:55:53;8.93;;;5.72;;
51854;SDS011;37895;53.240;6.572;2023-04-03T04:58:18;10.90;;;5.55;;
51854;SDS011;37895;53.240;6.572;2023-04-03T05:00:44;9.82;;;6.57;;
51854;SDS011;37895;53.240;6.572;2023-04-03T05:03:10;12.25;;;5.50;;
51854;SDS011;37895;53.240;6.572;2023-04-03T05:05:38;9.63;;;4.72;;
51854;SDS011;37895;53.240;6.572;2023-04-03T05:08:04;9.65;;;6.13;;
51854;SDS011;37895;53.240;6.572;2023-04-03T05:10:30;10.85;;;5.97;;
51854;SDS011;37895;53.240;6.572;2023-04-03T05:12:56;9.70;;;6.05;;
51854;SDS011;37895;53.240;6.572;2023-04-03T05:15:22;10.18;;;5.95;;
51854;SDS011;37895;53.240;6.572;2023-04-03T05:17:48;10.30;;;6.57;;
51854;SDS011;37895;53.240;6.572;2023-04-03T05:20:13;11.55;;;7.05;;
51854;SDS011;37895;53.240;6.572;2023-04-03T05:22:39;12.63;;;6.22;;
51854;SDS011;37895;53.240;6.572;2023-04-03T05:25:05;10.27;;;7.15;;
51854;SDS011;37895;53.240;6.572;2023-04-03T05:29:56;16.75;;;6.97;;
51854;SDS011;37895;53.240;6.572;2023-04-03T05:32:23;12.93;;;6.70;;
51854;SDS011;37895;53.240;6.572;2023-04-03T05:34:51;9.73;;;6.15;;
51854;SDS011;37895;53.240;6.572;2023-04-03T05:37:16;10.70;;;6.40;;
51854;SDS011;37895;53.240;6.572;2023-04-03T05:39:42;10.65;;;6.88;;
51854;SDS011;37895;53.240;6.572;2023-04-03T05:42:08;11.02;;;7.18;;
51854;SDS011;37895;53.240;6.572;2023-04-03T05:44:34;11.30;;;6.85;;
51854;SDS011;37895;53.240;6.572;2023-04-03T05:47:00;11.48;;;6.93;;
51854;SDS011;37895;53.240;6.572;2023-04-03T05:49:25;10.15;;;6.97;;
51854;SDS011;37895;53.240;6.572;2023-04-03T05:51:51;8.75;;;6.60;;
51854;SDS011;37895;53.240;6.572;2023-04-03T05:54:27;11.70;;;6.88;;
51854;SDS011;37895;53.240;6.572;2023-04-03T05:56:54;9.13;;;6.35;;
51854;SDS011;37895;53.240;6.572;2023-04-03T05:59:20;10.95;;;6.60;;
51854;SDS011;37895;53.240;6.572;2023-04-03T06:01:46;9.50;;;5.78;;
51854;SDS011;37895;53.240;6.572;2023-04-03T06:06:57;8.48;;;5.97;;
51854;SDS011;37895;53.240;6.572;2023-04-03T06:09:24;11.52;;;5.95;;
51854;SDS011;37895;53.240;6.572;2023-04-03T06:11:52;10.77;;;6.38;;
51854;SDS011;37895;53.240;6.572;2023-04-03T06:14:18;10.10;;;5.90;;
51854;SDS011;37895;53.240;6.572;2023-04-03T06:16:43;7.68;;;5.13;;
51854;SDS011;37895;53.240;6.572;2023-04-03T06:19:10;9.35;;;5.75;;
51854;SDS011;37895;53.240;6.572;2023-04-03T06:21:38;11.23;;;6.38;;
51854;SDS011;37895;53.240;6.572;2023-04-03T06:24:04;9.40;;;5.90;;
51854;SDS011;37895;53.240;6.572;2023-04-03T06:26:31;10.10;;;5.88;;
51854;SDS011;37895;53.240;6.572;2023-04-03T06:28:57;11.07;;;4.13;;
51854;SDS011;37895;53.240;6.572;2023-04-03T06:31:22;7.38;;;4.78;;
51854;SDS011;37895;53.240;6.572;2023-04-03T06:33:48;9.15;;;5.15;;
51854;SDS011;37895;53.240;6.572;2023-04-03T06:36:14;9.48;;;4.63;;
51854;SDS011;37895;53.240;6.572;2023-04-03T06:38:44;8.95;;;5.50;;
51854;SDS011;37895;53.240;6.572;2023-04-03T06:41:10;7.78;;;5.13;;
51854;SDS011;37895;53.240;6.572;2023-04-03T06:43:36;12.90;;;5.75;;
51854;SDS011;37895;53.240;6.572;2023-04-03T06:46:02;10.35;;;5.75;;
51854;SDS011;37895;53.240;6.572;2023-04-03T06:48:28;10.85;;;4.93;;
51854;SDS011;37895;53.240;6.572;2023-04-03T06:50:54;15.32;;;6.22;;
51854;SDS011;37895;53.240;6.572;2023-04-03T06:53:20;11.98;;;6.10;;
51854;SDS011;37895;53.240;6.572;2023-04-03T06:55:46;12.02;;;5.85;;
51854;SDS011;37895;53.240;6.572;2023-04-03T06:58:12;9.82;;;5.88;;
51854;SDS011;37895;53.240;6.572;2023-04-03T07:00:40;13.73;;;5.38;;
51854;SDS011;37895;53.240;6.572;2023-04-03T07:03:06;8.48;;;5.32;;
51854;SDS011;37895;53.240;6.572;2023-04-03T07:05:31;9.05;;;4.88;;
51854;SDS011;37895;53.240;6.572;2023-04-03T07:07:57;10.70;;;5.80;;
51854;SDS011;37895;53.240;6.572;2023-04-03T07:10:23;12.90;;;5.30;;
51854;SDS011;37895;53.240;6.572;2023-04-03T07:12:48;8.73;;;4.70;;
51854;SDS011;37895;53.240;6.572;2023-04-03T07:15:14;7.65;;;5.47;;
51854;SDS011;37895;53.240;6.572;2023-04-03T07:17:40;7.70;;;6.00;;
51854;SDS011;37895;53.240;6.572;2023-04-03T07:20:06;10.02;;;5.60;;
51854;SDS011;37895;53.240;6.572;2023-04-03T07:22:33;9.57;;;5.15;;
51854;SDS011;37895;53.240;6.572;2023-04-03T07:24:58;8.45;;;5.28;;
51854;SDS011;37895;53.240;6.572;2023-04-03T07:27:24;8.82;;;5.18;;
51854;SDS011;37895;53.240;6.572;2023-04-03T07:29:50;8.77;;;4.85;;
51854;SDS011;37895;53.240;6.572;2023-04-03T07:32:16;6.65;;;5.15;;
51854;SDS011;37895;53.240;6.572;2023-04-03T07:34:42;9.90;;;4.82;;
51854;SDS011;37895;53.240;6.572;2023-04-03T07:37:08;10.40;;;5.25;;
51854;SDS011;37895;53.240;6.572;2023-04-03T07:39:34;7.40;;;4.82;;
51854;SDS011;37895;53.240;6.572;2023-04-03T07:42:00;8.00;;;4.60;;
51854;SDS011;37895;53.240;6.572;2023-04-03T07:46:52;9.95;;;4.88;;
51854;SDS011;37895;53.240;6.572;2023-04-03T07:49:20;8.05;;;4.75;;
51854;SDS011;37895;53.240;6.572;2023-04-03T07:51:48;13.63;;;5.28;;
51854;SDS011;37895;53.240;6.572;2023-04-03T07:54:14;7.68;;;4.82;;
51854;SDS011;37895;53.240;6.572;2023-04-03T07:56:40;8.32;;;4.03;;
51854;SDS011;37895;53.240;6.572;2023-04-03T07:59:07;6.28;;;4.20;;
51854;SDS011;37895;53.240;6.572;2023-04-03T08:01:33;5.88;;;4.13;;
51854;SDS011;37895;53.240;6.572;2023-04-03T08:03:59;7.63;;;4.40;;
51854;SDS011;37895;53.240;6.572;2023-04-03T08:06:25;9.73;;;5.07;;
51854;SDS011;37895;53.240;6.572;2023-04-03T08:08:51;9.10;;;4.05;;
51854;SDS011;37895;53.240;6.572;2023-04-03T08:11:17;15.48;;;5.53;;
51854;SDS011;37895;53.240;6.572;2023-04-03T08:13:43;8.40;;;4.43;;
51854;SDS011;37895;53.240;6.572;2023-04-03T08:18:36;8.70;;;3.20;;
51854;SDS011;37895;53.240;6.572;2023-04-03T08:21:07;9.20;;;4.05;;
51854;SDS011;37895;53.240;6.572;2023-04-03T08:23:34;7.05;;;3.88;;
51854;SDS011;37895;53.240;6.572;2023-04-03T08:26:04;9.77;;;4.45;;
51854;SDS011;37895;53.240;6.572;2023-04-03T08:28:38;8.43;;;4.03;;
51854;SDS011;37895;53.240;6.572;2023-04-03T08:31:05;8.82;;;3.63;;
51854;SDS011;37895;53.240;6.572;2023-04-03T08:33:33;5.18;;;3.75;;
51854;SDS011;37895;53.240;6.572;2023-04-03T08:36:01;6.68;;;3.42;;
51854;SDS011;37895;53.240;6.572;2023-04-03T08:38:32;7.22;;;4.05;;
51854;SDS011;37895;53.240;6.572;2023-04-03T08:41:13;7.25;;;3.88;;
51854;SDS011;37895;53.240;6.572;2023-04-03T08:46:16;7.03;;;3.80;;
51854;SDS011;37895;53.240;6.572;2023-04-03T08:48:45;7.90;;;3.78;;
51854;SDS011;37895;53.240;6.572;2023-04-03T08:51:16;7.85;;;3.92;;
51854;SDS011;37895;53.240;6.572;2023-04-03T08:56:22;6.15;;;3.95;;
51854;SDS011;37895;53.240;6.572;2023-04-03T08:58:52;5.30;;;3.00;;
51854;SDS011;37895;53.240;6.572;2023-04-03T09:01:26;11.07;;;4.22;;
51854;SDS011;37895;53.240;6.572;2023-04-03T09:04:05;4.65;;;3.28;;
51854;SDS011;37895;53.240;6.572;2023-04-03T09:06:36;3.67;;;2.70;;
51854;SDS011;37895;53.240;6.572;2023-04-03T09:19:49;5.40;;;2.65;;
51854;SDS011;37895;53.240;6.572;2023-04-03T09:22:24;3.13;;;2.58;;
51854;SDS011;37895;53.240;6.572;2023-04-03T09:25:12;4.07;;;2.58;;
51854;SDS011;37895;53.240;6.572;2023-04-03T09:27:59;4.43;;;2.72;;
51854;SDS011;37895;53.240;6.572;2023-04-03T09:30:26;7.35;;;3.15;;
51854;SDS011;37895;53.240;6.572;2023-04-03T09:37:58;3.88;;;2.40;;
51854;SDS011;37895;53.240;6.572;2023-04-03T09:40:37;5.63;;;3.08;;
51854;SDS011;37895;53.240;6.572;2023-04-03T09:45:42;5.70;;;2.60;;
51854;SDS011;37895;53.240;6.572;2023-04-03T09:50:41;5.20;;;2.72;;
51854;SDS011;37895;53.240;6.572;2023-04-03T09:55:58;3.22;;;2.67;;
51854;SDS011;37895;53.240;6.572;2023-04-03T09:58:30;8.18;;;3.05;;
51854;SDS011;37895;53.240;6.572;2023-04-03T10:00:59;6.47;;;2.50;;
51854;SDS011;37895;53.240;6.572;2023-04-03T10:05:57;4.40;;;2.75;;
51854;SDS011;37895;53.240;6.572;2023-04-03T10:08:25;4.97;;;2.30;;
51854;SDS011;37895;53.240;6.572;2023-04-03T10:11:12;3.42;;;2.30;;
51854;SDS011;37895;53.240;6.572;2023-04-03T10:13:51;5.28;;;2.60;;
51854;SDS011;37895;53.240;6.572;2023-04-03T10:16:53;4.15;;;2.53;;
51854;SDS011;37895;53.240;6.572;2023-04-03T10:22:20;7.05;;;2.60;;
51854;SDS011;37895;53.240;6.572;2023-04-03T10:25:15;6.18;;;2.88;;
51854;SDS011;37895;53.240;6.572;2023-04-03T10:35:49;3.28;;;1.85;;
51854;SDS011;37895;53.240;6.572;2023-04-03T10:38:40;3.05;;;2.30;;
51854;SDS011;37895;53.240;6.572;2023-04-03T10:41:16;2.33;;;1.98;;
51854;SDS011;37895;53.240;6.572;2023-04-03T10:46:49;3.45;;;2.20;;
51854;SDS011;37895;53.240;6.572;2023-04-03T10:52:22;3.60;;;2.60;;
51854;SDS011;37895;53.240;6.572;2023-04-03T10:58:01;3.30;;;2.05;;
51854;SDS011;37895;53.240;6.572;2023-04-03T11:00:36;3.78;;;2.00;;
51854;SDS011;37895;53.240;6.572;2023-04-03T11:03:30;4.03;;;2.10;;
51854;SDS011;37895;53.240;6.572;2023-04-03T11:05:57;4.15;;;1.80;;
51854;SDS011;37895;53.240;6.572;2023-04-03T11:14:15;4.45;;;1.92;;
51854;SDS011;37895;53.240;6.572;2023-04-03T11:16:45;2.10;;;1.70;;
51854;SDS011;37895;53.240;6.572;2023-04-03T11:19:27;5.32;;;1.77;;
51854;SDS011;37895;53.240;6.572;2023-04-03T11:24:41;3.75;;;2.25;;
51854;SDS011;37895;53.240;6.572;2023-04-03T11:27:20;3.30;;;2.10;;
51854;SDS011;37895;53.240;6.572;2023-04-03T11:29:48;4.50;;;2.42;;
51854;SDS011;37895;53.240;6.572;2023-04-03T11:34:57;2.67;;;1.77;;
51854;SDS011;37895;53.240;6.572;2023-04-03T11:40:18;3.45;;;1.88;;
51854;SDS011;37895;53.240;6.572;2023-04-03T11:50:44;3.58;;;2.13;;
51854;SDS011;37895;53.240;6.572;2023-04-03T12:00:59;4.65;;;2.00;;
51854;SDS011;37895;53.240;6.572;2023-04-03T12:05:51;7.13;;;2.43;;
51854;SDS011;37895;53.240;6.572;2023-04-03T12:08:27;2.38;;;1.67;;
51854;SDS011;37895;53.240;6.572;2023-04-03T12:16:27;2.60;;;1.92;;
51854;SDS011;37895;53.240;6.572;2023-04-03T12:32:04;3.13;;;1.90;;
51854;SDS011;37895;53.240;6.572;2023-04-03T12:37:21;3.92;;;1.70;;
51854;SDS011;37895;53.240;6.572;2023-04-03T12:40:21;4.88;;;2.15;;
51854;SDS011;37895;53.240;6.572;2023-04-03T12:43:02;3.50;;;2.00;;
51854;SDS011;37895;53.240;6.572;2023-04-03T12:45:50;6.57;;;2.00;;
51854;SDS011;37895;53.240;6.572;2023-04-03T12:54:00;2.60;;;1.75;;
51854;SDS011;37895;53.240;6.572;2023-04-03T12:56:30;3.53;;;1.60;;
51854;SDS011;37895;53.240;6.572;2023-04-03T13:01:52;2.88;;;2.10;;
51854;SDS011;37895;53.240;6.572;2023-04-03T13:04:22;3.65;;;1.67;;
51854;SDS011;37895;53.240;6.572;2023-04-03T13:06:49;3.20;;;2.10;;
51854;SDS011;37895;53.240;6.572;2023-04-03T13:14:25;2.67;;;1.67;;
51854;SDS011;37895;53.240;6.572;2023-04-03T13:17:12;3.17;;;1.83;;
51854;SDS011;37895;53.240;6.572;2023-04-03T13:19:40;2.58;;;1.58;;
51854;SDS011;37895;53.240;6.572;2023-04-03T13:24:58;2.45;;;1.70;;
51854;SDS011;37895;53.240;6.572;2023-04-03T13:27:26;2.47;;;1.60;;
51854;SDS011;37895;53.240;6.572;2023-04-03T13:29:56;2.13;;;1.60;;
51854;SDS011;37895;53.240;6.572;2023-04-03T13:32:24;2.25;;;1.50;;
51854;SDS011;37895;53.240;6.572;2023-04-03T13:34:51;2.33;;;1.80;;
51854;SDS011;37895;53.240;6.572;2023-04-03T13:37:31;3.92;;;1.70;;
51854;SDS011;37895;53.240;6.572;2023-04-03T13:40:04;3.25;;;1.75;;
51854;SDS011;37895;53.240;6.572;2023-04-03T13:42:39;2.45;;;1.70;;
51854;SDS011;37895;53.240;6.572;2023-04-03T13:47:41;3.50;;;2.30;;
51854;SDS011;37895;53.240;6.572;2023-04-03T13:52:41;3.45;;;2.00;;
51854;SDS011;37895;53.240;6.572;2023-04-03T13:57:52;5.53;;;2.35;;
51854;SDS011;37895;53.240;6.572;2023-04-03T14:00:20;4.70;;;2.13;;
51854;SDS011;37895;53.240;6.572;2023-04-03T14:02:53;3.67;;;2.40;;
51854;SDS011;37895;53.240;6.572;2023-04-03T14:05:21;12.43;;;2.58;;
51854;SDS011;37895;53.240;6.572;2023-04-03T14:07:50;3.13;;;2.05;;
51854;SDS011;37895;53.240;6.572;2023-04-03T14:10:16;3.15;;;2.08;;
51854;SDS011;37895;53.240;6.572;2023-04-03T14:12:41;4.55;;;2.10;;
51854;SDS011;37895;53.240;6.572;2023-04-03T14:15:16;3.95;;;2.00;;
51854;SDS011;37895;53.240;6.572;2023-04-03T14:17:49;3.08;;;2.00;;
51854;SDS011;37895;53.240;6.572;2023-04-03T14:20:18;3.03;;;1.90;;
51854;SDS011;37895;53.240;6.572;2023-04-03T14:22:46;4.13;;;1.90;;
51854;SDS011;37895;53.240;6.572;2023-04-03T14:25:13;2.85;;;2.20;;
51854;SDS011;37895;53.240;6.572;2023-04-03T14:27:41;4.13;;;2.22;;
51854;SDS011;37895;53.240;6.572;2023-04-03T14:30:14;3.42;;;2.30;;
51854;SDS011;37895;53.240;6.572;2023-04-03T14:32:40;3.20;;;1.90;;
51854;SDS011;37895;53.240;6.572;2023-04-03T14:37:32;5.07;;;2.30;;
51854;SDS011;37895;53.240;6.572;2023-04-03T14:39:59;4.53;;;2.08;;
51854;SDS011;37895;53.240;6.572;2023-04-03T14:42:27;4.57;;;2.35;;
51854;SDS011;37895;53.240;6.572;2023-04-03T14:44:55;3.08;;;2.00;;
51854;SDS011;37895;53.240;6.572;2023-04-03T14:49:49;6.78;;;2.15;;
51854;SDS011;37895;53.240;6.572;2023-04-03T14:52:17;4.68;;;2.08;;
51854;SDS011;37895;53.240;6.572;2023-04-03T14:54:52;3.07;;;1.97;;
51854;SDS011;37895;53.240;6.572;2023-04-03T14:59:43;4.65;;;2.05;;
51854;SDS011;37895;53.240;6.572;2023-04-03T15:02:21;4.22;;;1.75;;
51854;SDS011;37895;53.240;6.572;2023-04-03T15:04:51;3.05;;;1.70;;
51854;SDS011;37895;53.240;6.572;2023-04-03T15:07:17;5.20;;;1.90;;
51854;SDS011;37895;53.240;6.572;2023-04-03T15:09:43;6.60;;;2.08;;
51854;SDS011;37895;53.240;6.572;2023-04-03T15:12:09;3.33;;;1.90;;
51854;SDS011;37895;53.240;6.572;2023-04-03T15:14:35;2.75;;;1.85;;
51854;SDS011;37895;53.240;6.572;2023-04-03T15:17:01;2.60;;;1.58;;
51854;SDS011;37895;53.240;6.572;2023-04-03T15:19:27;2.42;;;1.77;;
51854;SDS011;37895;53.240;6.572;2023-04-03T15:21:53;3.30;;;1.80;;
51854;SDS011;37895;53.240;6.572;2023-04-03T15:24:19;3.00;;;1.67;;
51854;SDS011;37895;53.240;6.572;2023-04-03T15:26:44;5.97;;;1.83;;
51854;SDS011;37895;53.240;6.572;2023-04-03T15:29:11;2.38;;;1.67;;
51854;SDS011;37895;53.240;6.572;2023-04-03T15:31:37;2.45;;;1.75;;
51854;SDS011;37895;53.240;6.572;2023-04-03T15:34:02;2.25;;;1.63;;
51854;SDS011;37895;53.240;6.572;2023-04-03T15:36:28;2.80;;;1.70;;
51854;SDS011;37895;53.240;6.572;2023-04-03T15:38:54;1.80;;;1.63;;
51854;SDS011;37895;53.240;6.572;2023-04-03T15:41:19;3.58;;;1.85;;
51854;SDS011;37895;53.240;6.572;2023-04-03T15:43:45;2.60;;;1.50;;
51854;SDS011;37895;53.240;6.572;2023-04-03T15:46:11;2.20;;;1.77;;
51854;SDS011;37895;53.240;6.572;2023-04-03T15:48:37;1.90;;;1.70;;
51854;SDS011;37895;53.240;6.572;2023-04-03T15:51:03;3.17;;;1.92;;
51854;SDS011;37895;53.240;6.572;2023-04-03T15:53:31;3.50;;;1.83;;
51854;SDS011;37895;53.240;6.572;2023-04-03T15:55:57;2.00;;;1.70;;
51854;SDS011;37895;53.240;6.572;2023-04-03T15:58:22;2.80;;;1.70;;
51854;SDS011;37895;53.240;6.572;2023-04-03T16:00:48;2.93;;;2.00;;
51854;SDS011;37895;53.240;6.572;2023-04-03T16:03:18;3.95;;;1.80;;
51854;SDS011;37895;53.240;6.572;2023-04-03T16:05:46;4.70;;;1.90;;
51854;SDS011;37895;53.240;6.572;2023-04-03T16:08:12;3.33;;;2.30;;
51854;SDS011;37895;53.240;6.572;2023-04-03T16:10:38;3.38;;;2.67;;
51854;SDS011;37895;53.240;6.572;2023-04-03T16:15:30;3.17;;;2.20;;
51854;SDS011;37895;53.240;6.572;2023-04-03T16:17:58;6.00;;;2.35;;
51854;SDS011;37895;53.240;6.572;2023-04-03T16:20:25;3.80;;;2.00;;
51854;SDS011;37895;53.240;6.572;2023-04-03T16:22:51;4.63;;;2.22;;
51854;SDS011;37895;53.240;6.572;2023-04-03T16:27:43;2.20;;;2.00;;
51854;SDS011;37895;53.240;6.572;2023-04-03T16:30:09;5.47;;;2.35;;
51854;SDS011;37895;53.240;6.572;2023-04-03T16:35:01;4.97;;;2.65;;
51854;SDS011;37895;53.240;6.572;2023-04-03T16:37:28;3.83;;;2.00;;
51854;SDS011;37895;53.240;6.572;2023-04-03T16:39:53;4.97;;;2.30;;
51854;SDS011;37895;53.240;6.572;2023-04-03T16:42:19;3.72;;;1.90;;
51854;SDS011;37895;53.240;6.572;2023-04-03T16:44:45;3.72;;;2.25;;
51854;SDS011;37895;53.240;6.572;2023-04-03T16:47:10;3.90;;;2.30;;
51854;SDS011;37895;53.240;6.572;2023-04-03T16:49:38;3.28;;;2.17;;
51854;SDS011;37895;53.240;6.572;2023-04-03T16:52:04;3.70;;;2.20;;
51854;SDS011;37895;53.240;6.572;2023-04-03T16:54:30;4.07;;;2.05;;
51854;SDS011;37895;53.240;6.572;2023-04-03T16:56:57;3.85;;;2.35;;
51854;SDS011;37895;53.240;6.572;2023-04-03T16:59:23;4.10;;;2.40;;
51854;SDS011;37895;53.240;6.572;2023-04-03T17:01:49;9.05;;;2.00;;
51854;SDS011;37895;53.240;6.572;2023-04-03T17:04:15;3.22;;;2.20;;
51854;SDS011;37895;53.240;6.572;2023-04-03T17:06:40;6.80;;;2.33;;
51854;SDS011;37895;53.240;6.572;2023-04-03T17:09:06;4.60;;;2.58;;
51854;SDS011;37895;53.240;6.572;2023-04-03T17:11:32;5.22;;;2.22;;
51854;SDS011;37895;53.240;6.572;2023-04-03T17:13:58;4.40;;;2.15;;
51854;SDS011;37895;53.240;6.572;2023-04-03T17:16:24;3.58;;;2.33;;
51854;SDS011;37895;53.240;6.572;2023-04-03T17:18:51;4.55;;;2.22;;
51854;SDS011;37895;53.240;6.572;2023-04-03T17:21:18;5.22;;;2.13;;
51854;SDS011;37895;53.240;6.572;2023-04-03T17:26:11;4.47;;;2.25;;
51854;SDS011;37895;53.240;6.572;2023-04-03T17:28:36;6.65;;;2.65;;
51854;SDS011;37895;53.240;6.572;2023-04-03T17:31:04;4.10;;;2.42;;
51854;SDS011;37895;53.240;6.572;2023-04-03T17:33:30;8.40;;;2.75;;
51854;SDS011;37895;53.240;6.572;2023-04-03T17:35:56;4.15;;;2.63;;
51854;SDS011;37895;53.240;6.572;2023-04-03T17:38:25;6.30;;;2.70;;
51854;SDS011;37895;53.240;6.572;2023-04-03T17:40:51;6.28;;;3.00;;
51854;SDS011;37895;53.240;6.572;2023-04-03T17:43:20;6.13;;;2.70;;
51854;SDS011;37895;53.240;6.572;2023-04-03T17:45:46;4.32;;;2.97;;
51854;SDS011;37895;53.240;6.572;2023-04-03T17:48:11;3.95;;;2.83;;
51854;SDS011;37895;53.240;6.572;2023-04-03T17:50:37;4.43;;;2.97;;